sensor_id;sensor_type;location;lat;lon;timestamp;P1;durP1;ratioP1;P2;durP2;ratioP2
40533;SDS011;26233;51.894;10.192;2022-07-29T00:01:13;1.10;;;1.00;;
40533;SDS011;26233;51.894;10.192;2022-07-29T00:03:41;2.42;;;1.35;;
40533;SDS011;26233;51.894;10.192;2022-07-29T00:06:10;1.20;;;1.10;;
40533;SDS011;26233;51.894;10.192;2022-07-29T00:08:37;1.23;;;1.13;;
40533;SDS011;26233;51.894;10.192;2022-07-29T00:11:04;2.28;;;1.10;;
40533;SDS011;26233;51.894;10.192;2022-07-29T00:13:31;2.35;;;1.08;;
40533;SDS011;26233;51.894;10.192;2022-07-29T00:16:00;1.13;;;1.02;;
40533;SDS011;26233;51.894;10.192;2022-07-29T00:18:27;2.70;;;1.13;;
40533;SDS011;26233;51.894;10.192;2022-07-29T00:20:57;1.70;;;1.20;;
40533;SDS011;26233;51.894;10.192;2022-07-29T00:23:25;1.45;;;1.10;;
40533;SDS011;26233;51.894;10.192;2022-07-29T00:25:53;2.63;;;1.42;;
40533;SDS011;26233;51.894;10.192;2022-07-29T00:28:20;2.40;;;1.15;;
40533;SDS011;26233;51.894;10.192;2022-07-29T00:30:47;2.13;;;1.10;;
40533;SDS011;26233;51.894;10.192;2022-07-29T00:33:14;1.73;;;1.02;;
40533;SDS011;26233;51.894;10.192;2022-07-29T00:35:41;2.25;;;1.10;;
40533;SDS011;26233;51.894;10.192;2022-07-29T00:38:11;1.58;;;1.13;;
40533;SDS011;26233;51.894;10.192;2022-07-29T00:40:41;1.45;;;1.10;;
40533;SDS011;26233;51.894;10.192;2022-07-29T00:43:08;2.15;;;1.20;;
40533;SDS011;26233;51.894;10.192;2022-07-29T00:45:36;1.83;;;1.10;;
40533;SDS011;26233;51.894;10.192;2022-07-29T00:48:03;3.55;;;1.10;;
40533;SDS011;26233;51.894;10.192;2022-07-29T00:50:34;2.53;;;1.10;;
40533;SDS011;26233;51.894;10.192;2022-07-29T00:53:02;1.25;;;0.93;;
40533;SDS011;26233;51.894;10.192;2022-07-29T00:55:30;2.45;;;1.10;;
40533;SDS011;26233;51.894;10.192;2022-07-29T00:57:59;1.58;;;1.20;;
40533;SDS011;26233;51.894;10.192;2022-07-29T01:00:28;1.48;;;1.10;;
40533;SDS011;26233;51.894;10.192;2022-07-29T01:02:55;2.15;;;1.20;;
40533;SDS011;26233;51.894;10.192;2022-07-29T01:05:23;1.20;;;1.10;;
40533;SDS011;26233;51.894;10.192;2022-07-29T01:07:53;1.63;;;1.00;;
40533;SDS011;26233;51.894;10.192;2022-07-29T01:10:23;1.23;;;1.00;;
40533;SDS011;26233;51.894;10.192;2022-07-29T01:12:51;2.28;;;1.10;;
40533;SDS011;26233;51.894;10.192;2022-07-29T01:15:24;2.30;;;1.20;;
40533;SDS011;26233;51.894;10.192;2022-07-29T01:17:54;1.90;;;1.10;;
40533;SDS011;26233;51.894;10.192;2022-07-29T01:20:30;2.70;;;1.20;;
40533;SDS011;26233;51.894;10.192;2022-07-29T01:23:33;2.13;;;1.40;;
40533;SDS011;26233;51.894;10.192;2022-07-29T01:26:33;3.03;;;1.20;;
40533;SDS011;26233;51.894;10.192;2022-07-29T01:29:12;1.58;;;1.02;;
40533;SDS011;26233;51.894;10.192;2022-07-29T01:31:46;1.52;;;1.00;;
40533;SDS011;26233;51.894;10.192;2022-07-29T01:34:20;1.40;;;1.13;;
40533;SDS011;26233;51.894;10.192;2022-07-29T01:36:52;2.20;;;1.15;;
40533;SDS011;26233;51.894;10.192;2022-07-29T01:39:30;1.60;;;1.20;;
40533;SDS011;26233;51.894;10.192;2022-07-29T01:42:02;2.45;;;1.08;;
40533;SDS011;26233;51.894;10.192;2022-07-29T01:44:48;1.05;;;0.90;;
40533;SDS011;26233;51.894;10.192;2022-07-29T01:47:22;1.42;;;1.25;;
40533;SDS011;26233;51.894;10.192;2022-07-29T01:49:54;1.67;;;1.13;;
40533;SDS011;26233;51.894;10.192;2022-07-29T01:52:25;2.35;;;1.20;;
40533;SDS011;26233;51.894;10.192;2022-07-29T01:54:58;1.50;;;1.17;;
40533;SDS011;26233;51.894;10.192;2022-07-29T01:57:33;2.22;;;1.13;;
40533;SDS011;26233;51.894;10.192;2022-07-29T02:00:04;1.42;;;1.17;;
40533;SDS011;26233;51.894;10.192;2022-07-29T02:02:35;1.30;;;1.20;;
40533;SDS011;26233;51.894;10.192;2022-07-29T02:05:04;1.83;;;1.00;;
40533;SDS011;26233;51.894;10.192;2022-07-29T02:07:36;1.95;;;1.20;;
40533;SDS011;26233;51.894;10.192;2022-07-29T02:10:05;1.67;;;1.15;;
40533;SDS011;26233;51.894;10.192;2022-07-29T02:12:35;1.45;;;1.20;;
40533;SDS011;26233;51.894;10.192;2022-07-29T02:15:06;1.35;;;1.17;;
40533;SDS011;26233;51.894;10.192;2022-07-29T02:17:35;1.20;;;1.10;;
40533;SDS011;26233;51.894;10.192;2022-07-29T02:20:09;1.70;;;1.10;;
40533;SDS011;26233;51.894;10.192;2022-07-29T02:22:38;2.13;;;1.40;;
40533;SDS011;26233;51.894;10.192;2022-07-29T02:25:07;2.53;;;1.35;;
40533;SDS011;26233;51.894;10.192;2022-07-29T02:27:35;1.50;;;1.08;;
40533;SDS011;26233;51.894;10.192;2022-07-29T02:30:07;1.50;;;1.13;;
40533;SDS011;26233;51.894;10.192;2022-07-29T02:32:36;1.13;;;1.02;;
40533;SDS011;26233;51.894;10.192;2022-07-29T02:35:06;1.67;;;1.23;;
40533;SDS011;26233;51.894;10.192;2022-07-29T02:37:36;1.50;;;1.13;;
40533;SDS011;26233;51.894;10.192;2022-07-29T02:40:08;1.30;;;1.05;;
40533;SDS011;26233;51.894;10.192;2022-07-29T02:42:37;1.20;;;1.10;;
40533;SDS011;26233;51.894;10.192;2022-07-29T02:45:09;1.63;;;1.02;;
40533;SDS011;26233;51.894;10.192;2022-07-29T02:47:38;1.95;;;1.10;;
40533;SDS011;26233;51.894;10.192;2022-07-29T02:50:11;1.55;;;1.10;;
40533;SDS011;26233;51.894;10.192;2022-07-29T02:52:42;1.25;;;1.10;;
40533;SDS011;26233;51.894;10.192;2022-07-29T02:55:15;1.40;;;1.30;;
40533;SDS011;26233;51.894;10.192;2022-07-29T02:57:47;1.95;;;1.38;;
40533;SDS011;26233;51.894;10.192;2022-07-29T03:00:25;2.13;;;1.30;;
40533;SDS011;26233;51.894;10.192;2022-07-29T03:02:59;1.20;;;1.10;;
40533;SDS011;26233;51.894;10.192;2022-07-29T03:05:30;1.10;;;1.02;;
40533;SDS011;26233;51.894;10.192;2022-07-29T03:08:00;1.08;;;0.98;;
40533;SDS011;26233;51.894;10.192;2022-07-29T03:10:30;2.85;;;1.23;;
40533;SDS011;26233;51.894;10.192;2022-07-29T03:12:58;2.58;;;1.30;;
40533;SDS011;26233;51.894;10.192;2022-07-29T03:15:28;1.50;;;1.20;;
40533;SDS011;26233;51.894;10.192;2022-07-29T03:17:55;1.20;;;1.10;;
40533;SDS011;26233;51.894;10.192;2022-07-29T03:20:24;1.10;;;1.00;;
40533;SDS011;26233;51.894;10.192;2022-07-29T03:22:52;1.90;;;1.30;;
40533;SDS011;26233;51.894;10.192;2022-07-29T03:25:19;1.58;;;1.15;;
40533;SDS011;26233;51.894;10.192;2022-07-29T03:27:47;1.77;;;1.30;;
40533;SDS011;26233;51.894;10.192;2022-07-29T03:30:15;1.50;;;1.25;;
40533;SDS011;26233;51.894;10.192;2022-07-29T03:32:44;1.23;;;1.00;;
40533;SDS011;26233;51.894;10.192;2022-07-29T03:35:11;1.00;;;0.90;;
40533;SDS011;26233;51.894;10.192;2022-07-29T03:37:39;1.77;;;1.10;;
40533;SDS011;26233;51.894;10.192;2022-07-29T03:40:07;1.80;;;1.10;;
40533;SDS011;26233;51.894;10.192;2022-07-29T03:42:36;1.25;;;1.15;;
40533;SDS011;26233;51.894;10.192;2022-07-29T03:45:07;1.13;;;1.02;;
40533;SDS011;26233;51.894;10.192;2022-07-29T03:47:37;1.42;;;1.20;;
40533;SDS011;26233;51.894;10.192;2022-07-29T03:50:11;1.38;;;1.00;;
40533;SDS011;26233;51.894;10.192;2022-07-29T03:52:44;1.13;;;0.98;;
40533;SDS011;26233;51.894;10.192;2022-07-29T03:55:12;1.40;;;1.10;;
40533;SDS011;26233;51.894;10.192;2022-07-29T03:57:43;1.17;;;1.00;;
40533;SDS011;26233;51.894;10.192;2022-07-29T04:00:14;1.45;;;1.10;;
40533;SDS011;26233;51.894;10.192;2022-07-29T04:02:41;2.28;;;1.30;;
40533;SDS011;26233;51.894;10.192;2022-07-29T04:05:13;1.35;;;1.08;;
40533;SDS011;26233;51.894;10.192;2022-07-29T04:07:42;1.38;;;1.10;;
40533;SDS011;26233;51.894;10.192;2022-07-29T04:10:10;1.98;;;1.13;;
40533;SDS011;26233;51.894;10.192;2022-07-29T04:12:38;1.90;;;1.15;;
40533;SDS011;26233;51.894;10.192;2022-07-29T04:15:05;3.08;;;1.15;;
40533;SDS011;26233;51.894;10.192;2022-07-29T04:17:33;1.95;;;1.10;;
40533;SDS011;26233;51.894;10.192;2022-07-29T04:20:02;1.20;;;1.00;;
40533;SDS011;26233;51.894;10.192;2022-07-29T04:22:31;1.48;;;1.20;;
40533;SDS011;26233;51.894;10.192;2022-07-29T04:24:58;1.30;;;1.10;;
40533;SDS011;26233;51.894;10.192;2022-07-29T04:27:25;1.30;;;1.20;;
40533;SDS011;26233;51.894;10.192;2022-07-29T04:29:52;1.35;;;1.25;;
40533;SDS011;26233;51.894;10.192;2022-07-29T04:32:19;2.38;;;1.20;;
40533;SDS011;26233;51.894;10.192;2022-07-29T04:34:46;1.33;;;1.23;;
40533;SDS011;26233;51.894;10.192;2022-07-29T04:37:15;1.38;;;1.20;;
40533;SDS011;26233;51.894;10.192;2022-07-29T04:39:42;1.70;;;1.25;;
40533;SDS011;26233;51.894;10.192;2022-07-29T04:42:12;1.67;;;1.20;;
40533;SDS011;26233;51.894;10.192;2022-07-29T04:44:39;1.73;;;1.20;;
40533;SDS011;26233;51.894;10.192;2022-07-29T04:47:07;1.05;;;0.98;;
40533;SDS011;26233;51.894;10.192;2022-07-29T04:49:36;1.92;;;1.20;;
40533;SDS011;26233;51.894;10.192;2022-07-29T04:52:04;2.33;;;1.10;;
40533;SDS011;26233;51.894;10.192;2022-07-29T04:54:34;2.03;;;1.30;;
40533;SDS011;26233;51.894;10.192;2022-07-29T04:57:01;2.15;;;1.25;;
40533;SDS011;26233;51.894;10.192;2022-07-29T04:59:28;1.75;;;1.35;;
40533;SDS011;26233;51.894;10.192;2022-07-29T05:01:55;1.58;;;1.20;;
40533;SDS011;26233;51.894;10.192;2022-07-29T05:04:22;1.40;;;1.20;;
40533;SDS011;26233;51.894;10.192;2022-07-29T05:06:49;2.20;;;1.20;;
40533;SDS011;26233;51.894;10.192;2022-07-29T05:09:16;2.67;;;1.20;;
40533;SDS011;26233;51.894;10.192;2022-07-29T05:11:45;1.30;;;1.20;;
40533;SDS011;26233;51.894;10.192;2022-07-29T05:14:12;1.50;;;1.25;;
40533;SDS011;26233;51.894;10.192;2022-07-29T05:16:39;2.97;;;1.33;;
40533;SDS011;26233;51.894;10.192;2022-07-29T05:19:06;1.40;;;1.30;;
40533;SDS011;26233;51.894;10.192;2022-07-29T05:21:34;1.75;;;1.10;;
40533;SDS011;26233;51.894;10.192;2022-07-29T05:24:01;1.85;;;1.05;;
40533;SDS011;26233;51.894;10.192;2022-07-29T05:26:28;1.40;;;1.17;;
40533;SDS011;26233;51.894;10.192;2022-07-29T05:28:57;1.73;;;1.15;;
40533;SDS011;26233;51.894;10.192;2022-07-29T05:31:24;1.33;;;1.20;;
40533;SDS011;26233;51.894;10.192;2022-07-29T05:33:51;3.05;;;1.20;;
40533;SDS011;26233;51.894;10.192;2022-07-29T05:36:18;1.65;;;1.15;;
40533;SDS011;26233;51.894;10.192;2022-07-29T05:38:45;1.63;;;1.30;;
40533;SDS011;26233;51.894;10.192;2022-07-29T05:41:12;1.33;;;1.23;;
40533;SDS011;26233;51.894;10.192;2022-07-29T05:43:42;1.35;;;1.13;;
40533;SDS011;26233;51.894;10.192;2022-07-29T05:46:10;1.83;;;1.35;;
40533;SDS011;26233;51.894;10.192;2022-07-29T05:48:38;2.95;;;1.40;;
40533;SDS011;26233;51.894;10.192;2022-07-29T05:51:06;1.55;;;1.20;;
40533;SDS011;26233;51.894;10.192;2022-07-29T05:53:33;1.85;;;1.20;;
40533;SDS011;26233;51.894;10.192;2022-07-29T05:56:02;1.83;;;1.15;;
40533;SDS011;26233;51.894;10.192;2022-07-29T05:58:30;2.10;;;1.30;;
40533;SDS011;26233;51.894;10.192;2022-07-29T06:00:58;1.45;;;1.10;;
40533;SDS011;26233;51.894;10.192;2022-07-29T06:03:27;2.17;;;1.30;;
40533;SDS011;26233;51.894;10.192;2022-07-29T06:05:54;1.67;;;1.27;;
40533;SDS011;26233;51.894;10.192;2022-07-29T06:08:21;2.33;;;1.10;;
40533;SDS011;26233;51.894;10.192;2022-07-29T06:10:48;1.38;;;1.27;;
40533;SDS011;26233;51.894;10.192;2022-07-29T06:13:15;1.33;;;1.17;;
40533;SDS011;26233;51.894;10.192;2022-07-29T06:15:45;1.48;;;1.35;;
40533;SDS011;26233;51.894;10.192;2022-07-29T06:18:12;3.08;;;1.30;;
40533;SDS011;26233;51.894;10.192;2022-07-29T06:20:41;1.40;;;1.10;;
40533;SDS011;26233;51.894;10.192;2022-07-29T06:23:08;1.65;;;1.10;;
40533;SDS011;26233;51.894;10.192;2022-07-29T06:25:35;1.63;;;1.30;;
40533;SDS011;26233;51.894;10.192;2022-07-29T06:28:02;1.98;;;1.05;;
40533;SDS011;26233;51.894;10.192;2022-07-29T06:30:30;1.30;;;1.20;;
40533;SDS011;26233;51.894;10.192;2022-07-29T06:32:57;2.30;;;1.20;;
40533;SDS011;26233;51.894;10.192;2022-07-29T06:35:25;2.25;;;1.13;;
40533;SDS011;26233;51.894;10.192;2022-07-29T06:37:53;1.70;;;1.20;;
40533;SDS011;26233;51.894;10.192;2022-07-29T06:40:22;4.32;;;1.30;;
40533;SDS011;26233;51.894;10.192;2022-07-29T06:43:07;3.97;;;1.40;;
40533;SDS011;26233;51.894;10.192;2022-07-29T06:45:34;1.35;;;1.00;;
40533;SDS011;26233;51.894;10.192;2022-07-29T06:48:01;1.25;;;1.10;;
40533;SDS011;26233;51.894;10.192;2022-07-29T06:50:29;1.77;;;1.13;;
40533;SDS011;26233;51.894;10.192;2022-07-29T06:52:58;1.65;;;1.10;;
40533;SDS011;26233;51.894;10.192;2022-07-29T06:55:25;1.95;;;1.30;;
40533;SDS011;26233;51.894;10.192;2022-07-29T06:57:52;1.73;;;1.17;;
40533;SDS011;26233;51.894;10.192;2022-07-29T07:00:23;1.85;;;1.40;;
40533;SDS011;26233;51.894;10.192;2022-07-29T07:02:50;1.92;;;1.10;;
40533;SDS011;26233;51.894;10.192;2022-07-29T07:05:17;5.45;;;1.10;;
40533;SDS011;26233;51.894;10.192;2022-07-29T07:07:44;1.63;;;1.20;;
40533;SDS011;26233;51.894;10.192;2022-07-29T07:10:12;1.20;;;1.02;;
40533;SDS011;26233;51.894;10.192;2022-07-29T07:12:39;1.58;;;1.25;;
40533;SDS011;26233;51.894;10.192;2022-07-29T07:15:07;1.42;;;1.13;;
40533;SDS011;26233;51.894;10.192;2022-07-29T07:17:35;2.03;;;1.30;;
40533;SDS011;26233;51.894;10.192;2022-07-29T07:20:03;3.05;;;1.50;;
40533;SDS011;26233;51.894;10.192;2022-07-29T07:22:31;1.98;;;1.40;;
40533;SDS011;26233;51.894;10.192;2022-07-29T07:25:01;1.50;;;1.40;;
40533;SDS011;26233;51.894;10.192;2022-07-29T07:27:30;1.75;;;1.30;;
40533;SDS011;26233;51.894;10.192;2022-07-29T07:29:57;3.15;;;1.23;;
40533;SDS011;26233;51.894;10.192;2022-07-29T07:32:24;1.10;;;1.00;;
40533;SDS011;26233;51.894;10.192;2022-07-29T07:34:51;2.05;;;1.15;;
40533;SDS011;26233;51.894;10.192;2022-07-29T07:37:18;1.35;;;1.10;;
40533;SDS011;26233;51.894;10.192;2022-07-29T07:39:49;1.92;;;1.55;;
40533;SDS011;26233;51.894;10.192;2022-07-29T07:42:16;1.33;;;1.13;;
40533;SDS011;26233;51.894;10.192;2022-07-29T07:44:45;2.17;;;1.30;;
40533;SDS011;26233;51.894;10.192;2022-07-29T07:47:13;3.30;;;1.20;;
40533;SDS011;26233;51.894;10.192;2022-07-29T07:49:44;1.20;;;1.10;;
40533;SDS011;26233;51.894;10.192;2022-07-29T07:52:12;1.70;;;1.40;;
40533;SDS011;26233;51.894;10.192;2022-07-29T07:54:39;1.67;;;1.23;;
40533;SDS011;26233;51.894;10.192;2022-07-29T07:57:07;2.00;;;1.10;;
40533;SDS011;26233;51.894;10.192;2022-07-29T07:59:35;1.90;;;1.50;;
40533;SDS011;26233;51.894;10.192;2022-07-29T08:02:03;1.33;;;1.20;;
40533;SDS011;26233;51.894;10.192;2022-07-29T08:04:31;2.00;;;1.10;;
40533;SDS011;26233;51.894;10.192;2022-07-29T08:06:58;1.58;;;1.40;;
40533;SDS011;26233;51.894;10.192;2022-07-29T08:09:28;1.27;;;1.17;;
40533;SDS011;26233;51.894;10.192;2022-07-29T08:11:56;2.97;;;1.42;;
40533;SDS011;26233;51.894;10.192;2022-07-29T08:14:24;1.88;;;1.38;;
40533;SDS011;26233;51.894;10.192;2022-07-29T08:16:51;2.33;;;1.15;;
40533;SDS011;26233;51.894;10.192;2022-07-29T08:19:20;2.47;;;1.08;;
40533;SDS011;26233;51.894;10.192;2022-07-29T08:21:47;1.30;;;1.20;;
40533;SDS011;26233;51.894;10.192;2022-07-29T08:24:14;1.45;;;1.23;;
40533;SDS011;26233;51.894;10.192;2022-07-29T08:26:58;2.75;;;1.40;;
40533;SDS011;26233;51.894;10.192;2022-07-29T08:29:26;1.30;;;1.20;;
40533;SDS011;26233;51.894;10.192;2022-07-29T08:31:55;1.40;;;1.27;;
40533;SDS011;26233;51.894;10.192;2022-07-29T08:34:23;2.13;;;1.30;;
40533;SDS011;26233;51.894;10.192;2022-07-29T08:36:50;1.98;;;1.20;;
40533;SDS011;26233;51.894;10.192;2022-07-29T08:39:19;1.40;;;1.30;;
40533;SDS011;26233;51.894;10.192;2022-07-29T08:41:46;3.03;;;1.15;;
40533;SDS011;26233;51.894;10.192;2022-07-29T08:44:15;1.90;;;1.58;;
40533;SDS011;26233;51.894;10.192;2022-07-29T08:46:42;1.13;;;1.02;;
40533;SDS011;26233;51.894;10.192;2022-07-29T08:49:09;1.50;;;1.40;;
40533;SDS011;26233;51.894;10.192;2022-07-29T08:51:40;1.40;;;1.20;;
40533;SDS011;26233;51.894;10.192;2022-07-29T08:54:07;1.80;;;1.38;;
40533;SDS011;26233;51.894;10.192;2022-07-29T08:56:36;1.58;;;1.40;;
40533;SDS011;26233;51.894;10.192;2022-07-29T08:59:06;2.78;;;1.30;;
40533;SDS011;26233;51.894;10.192;2022-07-29T09:01:34;2.10;;;1.52;;
40533;SDS011;26233;51.894;10.192;2022-07-29T09:04:04;3.13;;;1.30;;
40533;SDS011;26233;51.894;10.192;2022-07-29T09:06:37;2.58;;;1.40;;
40533;SDS011;26233;51.894;10.192;2022-07-29T09:09:12;2.58;;;1.25;;
40533;SDS011;26233;51.894;10.192;2022-07-29T09:11:40;4.35;;;1.23;;
40533;SDS011;26233;51.894;10.192;2022-07-29T09:14:10;1.77;;;1.42;;
40533;SDS011;26233;51.894;10.192;2022-07-29T09:16:49;1.80;;;1.27;;
40533;SDS011;26233;51.894;10.192;2022-07-29T09:19:19;2.75;;;1.30;;
40533;SDS011;26233;51.894;10.192;2022-07-29T09:21:50;1.27;;;1.17;;
40533;SDS011;26233;51.894;10.192;2022-07-29T09:24:25;2.70;;;1.38;;
40533;SDS011;26233;51.894;10.192;2022-07-29T09:27:08;2.13;;;1.55;;
40533;SDS011;26233;51.894;10.192;2022-07-29T09:29:48;2.65;;;1.35;;
40533;SDS011;26233;51.894;10.192;2022-07-29T09:32:24;2.45;;;1.45;;
40533;SDS011;26233;51.894;10.192;2022-07-29T09:34:52;1.83;;;1.10;;
40533;SDS011;26233;51.894;10.192;2022-07-29T09:37:45;3.30;;;1.70;;
40533;SDS011;26233;51.894;10.192;2022-07-29T09:40:14;2.38;;;1.50;;
40533;SDS011;26233;51.894;10.192;2022-07-29T09:42:43;1.40;;;1.30;;
40533;SDS011;26233;51.894;10.192;2022-07-29T09:45:12;2.65;;;1.55;;
40533;SDS011;26233;51.894;10.192;2022-07-29T09:47:53;2.80;;;1.48;;
40533;SDS011;26233;51.894;10.192;2022-07-29T09:50:22;2.13;;;1.40;;
40533;SDS011;26233;51.894;10.192;2022-07-29T09:53:02;3.63;;;1.63;;
40533;SDS011;26233;51.894;10.192;2022-07-29T09:55:29;2.45;;;1.30;;
40533;SDS011;26233;51.894;10.192;2022-07-29T10:00:44;2.63;;;1.58;;
40533;SDS011;26233;51.894;10.192;2022-07-29T10:03:12;1.90;;;1.67;;
40533;SDS011;26233;51.894;10.192;2022-07-29T10:05:40;2.03;;;1.30;;
40533;SDS011;26233;51.894;10.192;2022-07-29T10:08:10;1.50;;;1.20;;
40533;SDS011;26233;51.894;10.192;2022-07-29T10:10:39;1.50;;;1.30;;
40533;SDS011;26233;51.894;10.192;2022-07-29T10:13:09;2.15;;;1.50;;
40533;SDS011;26233;51.894;10.192;2022-07-29T10:15:39;2.55;;;1.85;;
40533;SDS011;26233;51.894;10.192;2022-07-29T10:18:10;3.72;;;1.50;;
40533;SDS011;26233;51.894;10.192;2022-07-29T10:20:39;2.30;;;1.48;;
40533;SDS011;26233;51.894;10.192;2022-07-29T10:23:06;3.72;;;1.38;;
40533;SDS011;26233;51.894;10.192;2022-07-29T10:25:36;2.22;;;1.70;;
40533;SDS011;26233;51.894;10.192;2022-07-29T10:28:05;2.10;;;1.48;;
40533;SDS011;26233;51.894;10.192;2022-07-29T10:30:32;2.13;;;1.50;;
40533;SDS011;26233;51.894;10.192;2022-07-29T10:33:21;1.88;;;1.20;;
40533;SDS011;26233;51.894;10.192;2022-07-29T10:36:05;1.58;;;1.38;;
40533;SDS011;26233;51.894;10.192;2022-07-29T10:38:52;1.65;;;1.55;;
40533;SDS011;26233;51.894;10.192;2022-07-29T10:44:36;2.22;;;1.67;;
40533;SDS011;26233;51.894;10.192;2022-07-29T10:47:07;3.28;;;2.05;;
40533;SDS011;26233;51.894;10.192;2022-07-29T10:49:34;2.45;;;1.95;;
40533;SDS011;26233;51.894;10.192;2022-07-29T10:52:02;3.15;;;2.20;;
40533;SDS011;26233;51.894;10.192;2022-07-29T10:54:42;3.33;;;1.58;;
40533;SDS011;26233;51.894;10.192;2022-07-29T10:57:13;2.33;;;1.50;;
40533;SDS011;26233;51.894;10.192;2022-07-29T10:59:45;3.55;;;1.70;;
40533;SDS011;26233;51.894;10.192;2022-07-29T11:02:40;3.28;;;1.90;;
40533;SDS011;26233;51.894;10.192;2022-07-29T11:05:13;1.88;;;1.42;;
40533;SDS011;26233;51.894;10.192;2022-07-29T11:10:45;1.70;;;1.50;;
40533;SDS011;26233;51.894;10.192;2022-07-29T11:13:16;1.70;;;1.60;;
40533;SDS011;26233;51.894;10.192;2022-07-29T11:16:17;1.30;;;1.20;;
40533;SDS011;26233;51.894;10.192;2022-07-29T11:21:46;1.73;;;1.30;;
40533;SDS011;26233;51.894;10.192;2022-07-29T11:24:15;1.58;;;1.48;;
40533;SDS011;26233;51.894;10.192;2022-07-29T11:26:47;3.28;;;1.42;;
40533;SDS011;26233;51.894;10.192;2022-07-29T11:29:47;1.95;;;1.38;;
40533;SDS011;26233;51.894;10.192;2022-07-29T11:32:20;1.77;;;1.50;;
40533;SDS011;26233;51.894;10.192;2022-07-29T11:37:44;9.55;;;1.75;;
40533;SDS011;26233;51.894;10.192;2022-07-29T11:40:14;1.65;;;1.33;;
40533;SDS011;26233;51.894;10.192;2022-07-29T11:42:48;1.60;;;1.50;;
40533;SDS011;26233;51.894;10.192;2022-07-29T11:45:20;2.35;;;1.80;;
40533;SDS011;26233;51.894;10.192;2022-07-29T11:47:58;2.42;;;1.52;;
40533;SDS011;26233;51.894;10.192;2022-07-29T11:50:32;2.53;;;1.90;;
40533;SDS011;26233;51.894;10.192;2022-07-29T11:53:02;3.30;;;1.88;;
40533;SDS011;26233;51.894;10.192;2022-07-29T11:55:37;2.22;;;1.73;;
40533;SDS011;26233;51.894;10.192;2022-07-29T11:58:07;2.10;;;1.90;;
40533;SDS011;26233;51.894;10.192;2022-07-29T12:00:35;2.38;;;1.90;;
40533;SDS011;26233;51.894;10.192;2022-07-29T12:03:05;3.33;;;1.88;;
40533;SDS011;26233;51.894;10.192;2022-07-29T12:05:37;2.17;;;1.98;;
40533;SDS011;26233;51.894;10.192;2022-07-29T12:08:09;3.78;;;1.90;;
40533;SDS011;26233;51.894;10.192;2022-07-29T12:10:41;2.42;;;1.85;;
40533;SDS011;26233;51.894;10.192;2022-07-29T12:13:10;3.35;;;2.10;;
40533;SDS011;26233;51.894;10.192;2022-07-29T12:15:38;2.13;;;1.70;;
40533;SDS011;26233;51.894;10.192;2022-07-29T12:18:16;2.40;;;1.88;;
40533;SDS011;26233;51.894;10.192;2022-07-29T12:20:45;3.47;;;1.88;;
40533;SDS011;26233;51.894;10.192;2022-07-29T12:23:15;2.83;;;2.28;;
40533;SDS011;26233;51.894;10.192;2022-07-29T12:25:43;2.70;;;2.13;;
40533;SDS011;26233;51.894;10.192;2022-07-29T12:28:12;2.53;;;1.85;;
40533;SDS011;26233;51.894;10.192;2022-07-29T12:30:44;2.45;;;2.08;;
40533;SDS011;26233;51.894;10.192;2022-07-29T12:33:20;2.38;;;2.17;;
40533;SDS011;26233;51.894;10.192;2022-07-29T12:35:49;11.65;;;2.08;;
40533;SDS011;26233;51.894;10.192;2022-07-29T12:38:19;2.13;;;1.92;;
40533;SDS011;26233;51.894;10.192;2022-07-29T12:40:47;3.83;;;2.00;;
40533;SDS011;26233;51.894;10.192;2022-07-29T12:43:17;2.20;;;2.00;;
40533;SDS011;26233;51.894;10.192;2022-07-29T12:45:46;2.10;;;1.90;;
40533;SDS011;26233;51.894;10.192;2022-07-29T12:48:31;3.35;;;2.30;;
40533;SDS011;26233;51.894;10.192;2022-07-29T12:51:01;3.13;;;2.17;;
40533;SDS011;26233;51.894;10.192;2022-07-29T12:53:31;3.63;;;2.20;;
40533;SDS011;26233;51.894;10.192;2022-07-29T12:55:58;3.13;;;2.45;;
40533;SDS011;26233;51.894;10.192;2022-07-29T12:58:29;2.42;;;2.22;;
40533;SDS011;26233;51.894;10.192;2022-07-29T13:01:03;2.55;;;2.30;;
40533;SDS011;26233;51.894;10.192;2022-07-29T13:03:41;2.70;;;2.40;;
40533;SDS011;26233;51.894;10.192;2022-07-29T13:09:02;2.63;;;2.40;;
40533;SDS011;26233;51.894;10.192;2022-07-29T13:11:33;3.08;;;2.40;;
40533;SDS011;26233;51.894;10.192;2022-07-29T13:14:04;4.03;;;2.72;;
40533;SDS011;26233;51.894;10.192;2022-07-29T13:16:33;2.90;;;2.58;;
40533;SDS011;26233;51.894;10.192;2022-07-29T13:19:08;3.58;;;2.55;;
40533;SDS011;26233;51.894;10.192;2022-07-29T13:21:37;5.35;;;2.95;;
40533;SDS011;26233;51.894;10.192;2022-07-29T13:24:05;3.70;;;2.60;;
40533;SDS011;26233;51.894;10.192;2022-07-29T13:26:34;3.25;;;2.95;;
40533;SDS011;26233;51.894;10.192;2022-07-29T13:29:02;5.32;;;2.85;;
40533;SDS011;26233;51.894;10.192;2022-07-29T13:31:31;3.05;;;2.75;;
40533;SDS011;26233;51.894;10.192;2022-07-29T13:33:58;3.00;;;2.70;;
40533;SDS011;26233;51.894;10.192;2022-07-29T13:36:25;6.18;;;2.97;;
40533;SDS011;26233;51.894;10.192;2022-07-29T13:38:52;2.85;;;2.58;;
40533;SDS011;26233;51.894;10.192;2022-07-29T13:41:19;3.10;;;2.85;;
40533;SDS011;26233;51.894;10.192;2022-07-29T13:43:46;5.50;;;3.20;;
40533;SDS011;26233;51.894;10.192;2022-07-29T13:46:15;4.22;;;2.95;;
40533;SDS011;26233;51.894;10.192;2022-07-29T13:48:42;4.20;;;2.60;;
40533;SDS011;26233;51.894;10.192;2022-07-29T13:51:09;3.22;;;2.90;;
40533;SDS011;26233;51.894;10.192;2022-07-29T13:53:36;2.78;;;2.47;;
40533;SDS011;26233;51.894;10.192;2022-07-29T13:56:04;3.17;;;2.50;;
40533;SDS011;26233;51.894;10.192;2022-07-29T13:58:31;3.47;;;2.60;;
40533;SDS011;26233;51.894;10.192;2022-07-29T14:00:59;3.03;;;2.70;;
40533;SDS011;26233;51.894;10.192;2022-07-29T14:03:30;2.92;;;2.55;;
40533;SDS011;26233;51.894;10.192;2022-07-29T14:05:57;2.70;;;2.50;;
40533;SDS011;26233;51.894;10.192;2022-07-29T14:08:25;3.17;;;2.50;;
40533;SDS011;26233;51.894;10.192;2022-07-29T14:10:53;3.40;;;2.60;;
40533;SDS011;26233;51.894;10.192;2022-07-29T14:13:20;5.05;;;3.08;;
40533;SDS011;26233;51.894;10.192;2022-07-29T14:15:47;3.65;;;2.78;;
40533;SDS011;26233;51.894;10.192;2022-07-29T14:18:14;2.90;;;2.70;;
40533;SDS011;26233;51.894;10.192;2022-07-29T14:20:42;3.28;;;2.97;;
40533;SDS011;26233;51.894;10.192;2022-07-29T14:23:09;4.00;;;3.47;;
40533;SDS011;26233;51.894;10.192;2022-07-29T14:25:36;3.88;;;3.20;;
40533;SDS011;26233;51.894;10.192;2022-07-29T14:28:04;3.30;;;3.03;;
40533;SDS011;26233;51.894;10.192;2022-07-29T14:30:31;3.33;;;3.03;;
40533;SDS011;26233;51.894;10.192;2022-07-29T14:32:58;3.65;;;2.95;;
40533;SDS011;26233;51.894;10.192;2022-07-29T14:35:25;3.30;;;3.00;;
40533;SDS011;26233;51.894;10.192;2022-07-29T14:37:54;3.22;;;2.92;;
40533;SDS011;26233;51.894;10.192;2022-07-29T14:40:22;3.42;;;3.10;;
40533;SDS011;26233;51.894;10.192;2022-07-29T14:42:50;4.72;;;3.17;;
40533;SDS011;26233;51.894;10.192;2022-07-29T14:45:18;3.40;;;3.08;;
40533;SDS011;26233;51.894;10.192;2022-07-29T14:47:45;3.92;;;3.10;;
40533;SDS011;26233;51.894;10.192;2022-07-29T14:50:12;3.30;;;3.00;;
40533;SDS011;26233;51.894;10.192;2022-07-29T14:52:39;4.40;;;3.28;;
40533;SDS011;26233;51.894;10.192;2022-07-29T14:55:08;3.45;;;2.97;;
40533;SDS011;26233;51.894;10.192;2022-07-29T14:57:35;5.28;;;3.20;;
40533;SDS011;26233;51.894;10.192;2022-07-29T15:00:03;3.47;;;3.17;;
40533;SDS011;26233;51.894;10.192;2022-07-29T15:02:32;4.30;;;3.30;;
40533;SDS011;26233;51.894;10.192;2022-07-29T15:04:59;4.28;;;3.03;;
40533;SDS011;26233;51.894;10.192;2022-07-29T15:07:26;3.22;;;3.00;;